createdAt,value
2022-08-27T00:00:03.424Z,1014.87
2022-08-27T00:05:03.178Z,1014.79
2022-08-27T00:10:05.040Z,1014.8
2022-08-27T00:15:03.340Z,1014.75
2022-08-27T00:20:03.385Z,1014.77
2022-08-27T00:25:03.182Z,1014.91
2022-08-27T00:30:03.283Z,1015.05
2022-08-27T00:35:03.167Z,1015.07
2022-08-27T00:40:03.350Z,1015.09
2022-08-27T00:45:03.136Z,1015.09
2022-08-27T00:50:03.393Z,1015.17
2022-08-27T00:55:03.305Z,1015.17
2022-08-27T01:00:03.536Z,1015.21
2022-08-27T01:05:03.118Z,1015.23
2022-08-27T01:10:04.129Z,1015.25
2022-08-27T01:15:03.176Z,1015.3
2022-08-27T01:20:03.241Z,1015.39
2022-08-27T01:25:03.132Z,1015.46
2022-08-27T01:30:04.082Z,1015.46
2022-08-27T01:35:03.118Z,1015.43
2022-08-27T01:40:03.533Z,1015.45
2022-08-27T01:45:04.729Z,1015.52
2022-08-27T01:50:03.329Z,1015.56
2022-08-27T01:55:03.208Z,1015.56
2022-08-27T02:00:03.262Z,1015.56
2022-08-27T02:05:03.069Z,1015.58
2022-08-27T02:10:03.263Z,1015.63
2022-08-27T02:15:03.199Z,1015.59
2022-08-27T02:20:03.364Z,1015.62
2022-08-27T02:25:03.136Z,1015.63
2022-08-27T02:30:03.133Z,1015.63
2022-08-27T02:35:03.236Z,1015.59
2022-08-27T02:40:03.482Z,1015.57
2022-08-27T02:45:03.129Z,1015.57
2022-08-27T02:50:03.299Z,1015.61
2022-08-27T02:55:03.132Z,1015.61
2022-08-27T03:00:03.200Z,1015.54
2022-08-27T03:05:03.163Z,1015.57
2022-08-27T03:10:03.246Z,1015.55
2022-08-27T03:15:03.041Z,1015.56
2022-08-27T03:20:03.267Z,1015.56
2022-08-27T03:25:03.178Z,1015.53
2022-08-27T03:30:04.149Z,1015.48
2022-08-27T03:35:03.560Z,1015.45
2022-08-27T03:40:03.367Z,1015.42
2022-08-27T03:45:03.220Z,1015.32
2022-08-27T03:50:03.284Z,1015.25
2022-08-27T03:55:03.215Z,1015.26
2022-08-27T04:00:03.177Z,1015.24
2022-08-27T04:05:03.141Z,1015.05
2022-08-27T04:10:03.615Z,1015.05
2022-08-27T04:15:03.097Z,1015.06
2022-08-27T04:20:24.826Z,1015.0
2022-08-27T04:25:10.501Z,1014.92
2022-08-27T04:30:03.434Z,1014.91
2022-08-27T04:35:03.131Z,1014.82
2022-08-27T04:40:03.336Z,1014.79
2022-08-27T04:45:03.134Z,1014.76
2022-08-27T04:50:05.190Z,1014.69
2022-08-27T04:55:03.119Z,1014.67
2022-08-27T05:00:03.193Z,1014.63
2022-08-27T05:05:03.174Z,1014.6
2022-08-27T05:10:03.270Z,1014.56
2022-08-27T05:15:03.195Z,1014.54
2022-08-27T05:20:03.359Z,1014.54
2022-08-27T05:25:03.161Z,1014.55
2022-08-27T05:30:03.182Z,1014.52
2022-08-27T05:35:03.101Z,1014.48
2022-08-27T05:40:03.338Z,1014.53
2022-08-27T05:45:03.184Z,1014.48
2022-08-27T05:50:03.249Z,1014.41
2022-08-27T05:55:03.274Z,1014.36
2022-08-27T06:00:03.210Z,1014.32
2022-08-27T06:05:03.299Z,1014.28
2022-08-27T06:10:03.353Z,1014.23
2022-08-27T06:15:03.097Z,1014.2
2022-08-27T06:20:03.245Z,1014.19
2022-08-27T06:25:03.125Z,1014.19
2022-08-27T06:30:03.289Z,1014.14
2022-08-27T06:35:03.170Z,1014.09
2022-08-27T06:40:03.257Z,1014.09
2022-08-27T06:45:03.250Z,1014.05
2022-08-27T06:50:03.285Z,1014.06
2022-08-27T06:55:03.224Z,1013.96
2022-08-27T07:00:03.217Z,1013.95
2022-08-27T07:05:03.167Z,1013.93
2022-08-27T07:10:03.900Z,1013.94
2022-08-27T07:15:04.063Z,1013.9
2022-08-27T07:20:03.453Z,1013.87
2022-08-27T07:25:03.145Z,1013.85
2022-08-27T07:30:03.209Z,1013.8
2022-08-27T07:35:03.081Z,1013.81
2022-08-27T07:40:03.361Z,1013.83
2022-08-27T07:50:03.302Z,1013.87
2022-08-27T07:55:03.070Z,1013.85
2022-08-27T08:00:03.203Z,1013.88
2022-08-27T08:05:03.027Z,1013.9
2022-08-27T08:10:03.231Z,1013.89
2022-08-27T08:15:03.235Z,1013.95
2022-08-27T08:20:19.748Z,1013.92
2022-08-27T08:25:03.121Z,1013.95
2022-08-27T08:30:03.336Z,1013.95
2022-08-27T08:35:03.135Z,1013.96
2022-08-27T08:40:03.229Z,1014.06
2022-08-27T08:45:03.148Z,1014.07
2022-08-27T08:50:03.251Z,1014.07
2022-08-27T08:55:03.101Z,1014.11
2022-08-27T09:00:03.250Z,1014.11
2022-08-27T09:05:03.149Z,1014.13
2022-08-27T09:10:03.295Z,1014.18
2022-08-27T09:15:03.259Z,1014.23
2022-08-27T09:20:03.286Z,1014.21
2022-08-27T09:25:03.411Z,1014.2
2022-08-27T09:30:03.232Z,1014.27
2022-08-27T09:35:03.078Z,1014.28
2022-08-27T09:40:03.209Z,1014.3
2022-08-27T09:45:03.051Z,1014.35
2022-08-27T09:50:06.719Z,1014.46
2022-08-27T09:55:03.232Z,1014.59
2022-08-27T10:00:03.383Z,1014.66
2022-08-27T10:05:03.172Z,1014.66
2022-08-27T10:10:03.238Z,1014.81
2022-08-27T10:15:03.062Z,1014.85
2022-08-27T10:20:03.273Z,1014.91
2022-08-27T10:25:03.069Z,1014.98
2022-08-27T10:30:03.554Z,1015.06
2022-08-27T10:35:03.171Z,1015.14
2022-08-27T10:40:03.263Z,1015.18
2022-08-27T10:45:03.104Z,1015.18
2022-08-27T10:50:03.325Z,1015.27
2022-08-27T10:55:03.023Z,1015.24
2022-08-27T11:00:03.534Z,1015.27
2022-08-27T11:05:03.150Z,1015.27
2022-08-27T11:10:03.253Z,1015.31
2022-08-27T11:15:03.311Z,1015.35
2022-08-27T11:20:03.288Z,1015.4
2022-08-27T11:25:03.102Z,1015.48
2022-08-27T11:30:03.190Z,1015.56
2022-08-27T11:35:03.115Z,1015.54
2022-08-27T11:40:03.402Z,1015.53
2022-08-27T11:45:03.106Z,1015.55
2022-08-27T11:50:03.239Z,1015.64
2022-08-27T11:55:03.120Z,1015.55
2022-08-27T12:00:03.255Z,1015.63
2022-08-27T12:05:03.101Z,1015.52
2022-08-27T12:10:03.310Z,1015.53
2022-08-27T12:15:03.101Z,1015.54
2022-08-27T12:20:03.307Z,1015.65
2022-08-27T12:25:03.146Z,1015.69
2022-08-27T12:30:03.312Z,1015.69
2022-08-27T12:35:08.163Z,1015.69
2022-08-27T12:40:03.540Z,1015.69
2022-08-27T12:45:03.106Z,1015.62
2022-08-27T12:50:03.343Z,1015.5
2022-08-27T12:55:03.220Z,1015.63
2022-08-27T13:00:03.447Z,1015.6
2022-08-27T13:05:04.144Z,1015.48
2022-08-27T13:10:03.372Z,1015.6
2022-08-27T13:15:03.211Z,1015.64
2022-08-27T13:20:03.304Z,1015.65
2022-08-27T13:25:03.157Z,1015.67
2022-08-27T13:30:03.287Z,1015.65
2022-08-27T13:35:03.320Z,1015.68
2022-08-27T13:40:03.648Z,1015.69
2022-08-27T13:45:04.158Z,1015.75
2022-08-27T13:50:03.281Z,1015.72
2022-08-27T13:55:03.145Z,1015.72
2022-08-27T14:00:03.331Z,1015.62
2022-08-27T14:05:03.257Z,1015.57
2022-08-27T14:10:03.526Z,1015.6
2022-08-27T14:15:03.114Z,1015.59
2022-08-27T14:20:04.360Z,1015.67
2022-08-27T14:25:03.356Z,1015.49
2022-08-27T14:30:03.371Z,1015.37
2022-08-27T14:35:03.180Z,1015.32
2022-08-27T14:40:03.554Z,1015.24
2022-08-27T14:45:03.093Z,1015.19
2022-08-27T14:50:03.329Z,1015.18
2022-08-27T14:55:03.102Z,1015.09
2022-08-27T15:00:03.330Z,1015.04
2022-08-27T15:05:03.476Z,1014.99
2022-08-27T15:10:03.369Z,1014.97
2022-08-27T15:15:03.164Z,1014.85
2022-08-27T15:20:03.384Z,1014.82
2022-08-27T15:25:03.281Z,1014.82
2022-08-27T15:30:03.410Z,1014.74
2022-08-27T15:35:03.136Z,1014.67
2022-08-27T15:40:03.421Z,1014.54
2022-08-27T15:45:03.204Z,1014.47
2022-08-27T15:50:03.134Z,1014.4
2022-08-27T15:55:03.151Z,1014.33
2022-08-27T16:00:03.386Z,1014.31
2022-08-27T16:05:04.231Z,1014.2
2022-08-27T16:10:03.196Z,1014.15
2022-08-27T16:15:03.111Z,1014.07
2022-08-27T16:20:03.361Z,1013.97
2022-08-27T16:25:08.146Z,1013.98
2022-08-27T16:30:03.159Z,1013.91
2022-08-27T16:35:03.254Z,1013.84
2022-08-27T16:40:03.198Z,1013.78
2022-08-27T16:45:03.125Z,1013.69
2022-08-27T16:50:03.305Z,1013.63
2022-08-27T16:55:03.160Z,1013.57
2022-08-27T17:00:03.313Z,1013.41
2022-08-27T17:05:33.789Z,1013.41
2022-08-27T17:10:05.834Z,1013.35
2022-08-27T17:15:03.042Z,1013.29
2022-08-27T17:20:03.200Z,1013.22
2022-08-27T17:25:03.391Z,1013.15
2022-08-27T17:30:04.811Z,1013.08
2022-08-27T17:35:06.189Z,1012.96
2022-08-27T17:40:03.371Z,1012.89
2022-08-27T17:45:03.072Z,1012.75
2022-08-27T17:50:03.231Z,1012.73
2022-08-27T17:55:03.139Z,1012.73
2022-08-27T18:00:05.230Z,1012.73
2022-08-27T18:05:03.313Z,1012.63
2022-08-27T18:10:03.292Z,1012.59
2022-08-27T18:15:03.222Z,1012.49
2022-08-27T18:20:03.482Z,1012.44
2022-08-27T18:25:03.230Z,1012.44
2022-08-27T18:30:04.331Z,1012.36
2022-08-27T18:35:03.188Z,1012.4
2022-08-27T18:40:03.292Z,1012.36
2022-08-27T18:45:05.796Z,1012.33
2022-08-27T18:50:03.418Z,1012.28
2022-08-27T18:55:03.166Z,1012.23
2022-08-27T19:00:03.249Z,1012.09
2022-08-27T19:05:03.395Z,1012.04
2022-08-27T19:10:04.819Z,1012.04
2022-08-27T19:15:03.213Z,1012.04
2022-08-27T19:20:03.266Z,1011.96
2022-08-27T19:25:03.192Z,1011.95
2022-08-27T19:30:03.307Z,1011.98
2022-08-27T19:35:03.402Z,1012.09
2022-08-27T19:40:03.514Z,1012.0
2022-08-27T19:45:03.440Z,1011.97
2022-08-27T19:50:03.211Z,1011.9
2022-08-27T19:55:13.450Z,1011.86
2022-08-27T20:00:03.532Z,1011.9
2022-08-27T20:05:17.301Z,1011.84
2022-08-27T20:10:08.360Z,1011.87
2022-08-27T20:15:03.117Z,1011.88
2022-08-27T20:20:03.291Z,1011.87
2022-08-27T20:25:03.275Z,1011.83
2022-08-27T20:30:03.232Z,1011.95
2022-08-27T20:35:03.163Z,1011.85
2022-08-27T20:40:03.406Z,1011.93
2022-08-27T20:45:03.259Z,1011.97
2022-08-27T20:50:03.509Z,1011.99
2022-08-27T20:55:03.158Z,1011.96
2022-08-27T21:00:03.337Z,1012.02
2022-08-27T21:05:03.177Z,1012.02
2022-08-27T21:10:03.303Z,1012.08
2022-08-27T21:15:03.139Z,1012.17
2022-08-27T21:20:03.331Z,1012.26
2022-08-27T21:25:03.165Z,1012.3
2022-08-27T21:30:03.349Z,1012.35
2022-08-27T21:35:03.127Z,1012.39
2022-08-27T21:40:03.420Z,1012.42
2022-08-27T21:45:03.232Z,1012.44
2022-08-27T21:50:03.219Z,1012.48
2022-08-27T21:55:03.175Z,1012.53
2022-08-27T22:00:03.419Z,1012.57
2022-08-27T22:05:03.125Z,1012.63
2022-08-27T22:10:03.229Z,1012.66
2022-08-27T22:15:03.127Z,1012.64
2022-08-27T22:20:04.295Z,1012.66
2022-08-27T22:25:03.119Z,1012.71
2022-08-27T22:30:03.350Z,1012.75
2022-08-27T22:35:03.177Z,1012.88
2022-08-27T22:40:03.453Z,1012.93
2022-08-27T22:45:03.241Z,1012.93
2022-08-27T22:50:03.255Z,1013.04
2022-08-27T22:55:03.398Z,1013.12
2022-08-27T23:00:03.273Z,1013.16
2022-08-27T23:05:06.392Z,1013.28
2022-08-27T23:10:03.329Z,1013.33
2022-08-27T23:15:03.173Z,1013.34
2022-08-27T23:20:03.323Z,1013.39
2022-08-27T23:25:03.213Z,1013.47
2022-08-27T23:30:03.377Z,1013.45
2022-08-27T23:35:03.295Z,1013.45
2022-08-27T23:40:03.606Z,1013.51
2022-08-27T23:45:03.261Z,1013.53
2022-08-27T23:50:04.391Z,1013.59
2022-08-27T23:55:03.105Z,1013.65
